Time;durP1;ratioP1;P1;durP2;ratioP2;P2;SDS_P1;SDS_P2;PMS_P1;PMS_P2;Temp;Humidity;BMP_temperature;BMP_pressure;BME280_temperature;BME280_humidity;BME280_pressure;Samples;Min_cycle;Max_cycle;Signal;HPM_P1;HPM_P2
2023/04/08 00:01:17;;;;;;;29.10;14.13;;;3.90;99.90;;;;;;8383918;28;20262;-69
2023/04/08 00:05:18;;;;;;;31.17;14.53;;;3.90;99.90;;;;;;8385934;28;20201;-69
2023/04/08 00:09:19;;;;;;;38.50;16.73;;;3.90;99.90;;;;;;8384046;28;20264;-69
2023/04/08 00:13:20;;;;;;;32.47;16.47;;;3.90;99.90;;;;;;8384498;28;20184;-69
2023/04/08 00:17:21;;;;;;;32.17;16.37;;;3.90;99.90;;;;;;8382060;28;20185;-69
2023/04/08 00:21:22;;;;;;;31.07;15.30;;;3.90;99.90;;;;;;8386992;28;20189;-69
2023/04/08 00:25:24;;;;;;;36.57;15.00;;;4.00;99.90;;;;;;8392813;28;20213;-69
2023/04/08 00:29:25;;;;;;;34.40;15.67;;;4.00;99.90;;;;;;8387931;28;20217;-69
2023/04/08 00:33:26;;;;;;;41.83;15.60;;;4.00;99.90;;;;;;8383666;28;20192;-67
2023/04/08 00:37:27;;;;;;;33.93;15.90;;;4.00;99.90;;;;;;8389877;28;20215;-68
2023/04/08 00:41:28;;;;;;;30.27;15.50;;;4.00;99.90;;;;;;8386269;28;20233;-67
2023/04/08 00:45:29;;;;;;;33.53;16.37;;;4.10;99.90;;;;;;8386594;28;20184;-67
2023/04/08 00:49:31;;;;;;;39.53;16.17;;;4.10;99.90;;;;;;8385702;28;20204;-67
2023/04/08 00:53:32;;;;;;;33.80;17.07;;;4.10;99.90;;;;;;8381231;28;20218;-67
2023/04/08 00:57:33;;;;;;;29.90;14.87;;;4.10;99.90;;;;;;8381556;28;20347;-67
2023/04/08 01:02:07;;;;;;;33.30;15.87;;;4.10;99.90;;;;;;8382978;28;20249;-67
2023/04/08 01:06:52;;;;;;;;;;;;;;;;;;;;;
2023/04/08 01:11:00;;;;;;;27.97;15.37;;;4.20;99.90;;;;;;8390432;28;20184;-68
2023/04/08 01:15:05;;;;;;;30.03;17.40;;;4.30;99.90;;;;;;8382269;28;20250;-68
2023/04/08 01:19:12;;;;;;;30.20;16.00;;;4.30;99.90;;;;;;8385028;28;20188;-69
2023/04/08 01:23:31;;;;;;;28.27;15.57;;;4.40;99.90;;;;;;8378190;28;20194;-67
2023/04/08 01:27:37;;;;;;;33.37;18.27;;;4.40;99.90;;;;;;8381279;28;20239;-67
2023/04/08 01:31:39;;;;;;;25.10;15.27;;;4.50;99.90;;;;;;8375523;28;20185;-67
2023/04/08 01:35:41;;;;;;;36.60;20.60;;;4.50;99.90;;;;;;8378118;28;20197;-68
2023/04/08 01:39:43;;;;;;;39.40;22.00;;;4.60;99.90;;;;;;8382735;28;20177;-67
2023/04/08 01:43:46;;;;;;;41.63;23.13;;;4.60;99.90;;;;;;8380708;28;20284;-68
2023/04/08 01:47:48;;;;;;;50.27;28.53;;;4.70;99.90;;;;;;8385032;28;20216;-68
2023/04/08 01:51:52;;;;;;;42.07;24.77;;;4.70;99.90;;;;;;8378232;28;20221;-69
2023/04/08 01:56:01;;;;;;;37.83;21.17;;;4.80;99.90;;;;;;8373259;28;20188;-69
2023/04/08 02:00:08;;;;;;;44.73;24.43;;;4.90;99.90;;;;;;8383194;28;20279;-69
2023/04/08 02:04:12;;;;;;;51.83;27.27;;;4.90;99.90;;;;;;8375208;28;20195;-69
2023/04/08 02:08:20;;;;;;;55.63;24.43;;;5.00;99.90;;;;;;8378810;28;20212;-69
2023/04/08 02:12:22;;;;;;;51.93;24.63;;;5.10;99.90;;;;;;8374585;28;20185;-69
2023/04/08 02:16:29;;;;;;;48.10;23.97;;;5.20;99.90;;;;;;8372608;28;20255;-69
2023/04/08 02:21:06;;;;;;;51.23;22.13;;;5.30;99.90;;;;;;8379608;28;20192;-69
2023/04/08 02:25:12;;;;;;;38.13;19.20;;;5.50;99.90;;;;;;8380214;28;20204;-69
2023/04/08 02:29:18;;;;;;;37.73;19.00;;;5.50;99.90;;;;;;8385965;28;20220;-68
2023/04/08 02:33:21;;;;;;;35.60;18.70;;;5.50;99.90;;;;;;8383313;28;20185;-69
2023/04/08 02:37:23;;;;;;;31.47;16.50;;;5.50;99.90;;;;;;8388498;28;20345;-68
2023/04/08 02:41:29;;;;;;;28.37;16.20;;;5.50;99.90;;;;;;8395001;28;20185;-69
2023/04/08 02:45:32;;;;;;;30.03;16.70;;;5.50;99.90;;;;;;8394288;28;20189;-68
2023/04/08 02:49:33;;;;;;;25.10;15.30;;;5.50;99.90;;;;;;8380406;28;20240;-69
2023/04/08 02:53:34;;;;;;;26.93;15.70;;;5.50;99.90;;;;;;8388681;28;20220;-69
2023/04/08 02:57:36;;;;;;;26.03;16.27;;;5.50;99.90;;;;;;8383928;28;20193;-69
2023/04/08 03:01:46;;;;;;;29.77;17.43;;;5.40;99.90;;;;;;8382610;28;20215;-69
2023/04/08 03:05:47;;;;;;;27.63;17.50;;;5.40;99.90;;;;;;8381514;28;20189;-69
2023/04/08 03:09:48;;;;;;;23.13;15.47;;;5.40;99.90;;;;;;8382991;28;20201;-69
2023/04/08 03:13:50;;;;;;;37.70;22.63;;;5.40;99.90;;;;;;8390124;28;20236;-69
2023/04/08 03:17:50;;;;;;;39.77;23.90;;;5.40;99.90;;;;;;8386587;28;20200;-70
2023/04/08 03:21:51;;;;;;;33.03;21.30;;;5.40;99.90;;;;;;8390006;28;20189;-69
2023/04/08 03:25:52;;;;;;;32.00;21.43;;;5.40;99.90;;;;;;8384490;28;20189;-69
2023/04/08 03:29:53;;;;;;;25.97;16.20;;;5.40;99.90;;;;;;8375731;28;20212;-69
2023/04/08 03:33:54;;;;;;;29.33;18.97;;;5.40;99.90;;;;;;8383832;28;20189;-70
2023/04/08 03:37:55;;;;;;;27.37;16.10;;;5.40;99.90;;;;;;8382513;28;20184;-69
2023/04/08 03:41:59;;;;;;;24.27;15.20;;;5.40;99.90;;;;;;8382613;28;20197;-70
2023/04/08 03:46:00;;;;;;;28.30;17.87;;;5.40;99.90;;;;;;8380909;28;20205;-69
2023/04/08 03:50:02;;;;;;;28.87;17.50;;;5.40;99.90;;;;;;8384246;28;20193;-69
2023/04/08 03:54:02;;;;;;;22.73;15.37;;;5.40;99.90;;;;;;8379670;28;20212;-69
2023/04/08 03:58:03;;;;;;;58.20;34.83;;;5.30;99.90;;;;;;8380930;28;20228;-70
2023/04/08 04:02:05;;;;;;;46.57;26.30;;;5.40;99.90;;;;;;8383746;28;20215;-69
2023/04/08 04:06:05;;;;;;;33.07;20.90;;;5.40;99.90;;;;;;8377914;28;20213;-67
2023/04/08 04:10:07;;;;;;;41.20;25.73;;;5.40;99.90;;;;;;8383274;28;20193;-68
2023/04/08 04:14:08;;;;;;;35.33;21.33;;;5.30;99.90;;;;;;8379892;28;20279;-68
2023/04/08 04:18:09;;;;;;;36.23;22.07;;;5.30;99.90;;;;;;8379767;28;20189;-68
2023/04/08 04:22:13;;;;;;;38.43;21.07;;;5.30;99.90;;;;;;8375071;28;20193;-68
2023/04/08 04:26:14;;;;;;;42.60;24.67;;;5.30;99.90;;;;;;8372471;28;20200;-65
2023/04/08 04:30:15;;;;;;;44.77;24.53;;;5.40;99.90;;;;;;8379098;28;20189;-65
2023/04/08 04:34:17;;;;;;;38.97;22.27;;;5.30;99.90;;;;;;8377858;28;20185;-66
2023/04/08 04:38:18;;;;;;;38.03;21.83;;;5.30;99.90;;;;;;8381843;28;20278;-65
2023/04/08 04:42:19;;;;;;;32.37;19.30;;;5.40;99.90;;;;;;8378547;28;20324;-66
2023/04/08 04:46:32;;;;;;;31.37;21.13;;;5.40;99.90;;;;;;8378644;28;20214;-65
2023/04/08 04:50:33;;;;;;;29.77;19.80;;;5.40;99.90;;;;;;8378328;28;20188;-66
2023/04/08 04:54:34;;;;;;;32.93;20.13;;;5.40;99.90;;;;;;8385534;28;20189;-66
2023/04/08 04:58:38;;;;;;;51.70;35.67;;;5.40;99.90;;;;;;8380721;28;20203;-65
2023/04/08 05:02:39;;;;;;;39.30;26.83;;;5.40;99.90;;;;;;8377393;28;20185;-66
2023/04/08 05:06:40;;;;;;;41.30;27.03;;;5.50;99.90;;;;;;8372515;28;20231;-66
2023/04/08 05:10:41;;;;;;;36.67;23.93;;;5.50;99.90;;;;;;8376284;28;20183;-66
2023/04/08 05:14:45;;;;;;;40.87;28.37;;;5.60;99.90;;;;;;8378893;28;20236;-66
2023/04/08 05:18:46;;;;;;;34.67;21.30;;;5.60;99.90;;;;;;8378174;28;20188;-67
2023/04/08 05:22:48;;;;;;;37.43;21.87;;;5.60;99.90;;;;;;8374274;28;20196;-66
2023/04/08 05:26:51;;;;;;;36.50;21.40;;;5.60;99.90;;;;;;8393289;28;20209;-65
2023/04/08 05:30:55;;;;;;;30.33;18.13;;;5.60;99.90;;;;;;8376616;28;20403;-66
2023/04/08 05:34:56;;;;;;;28.00;16.87;;;5.60;99.90;;;;;;8377541;28;20193;-66
2023/04/08 05:38:59;;;;;;;32.93;21.40;;;5.60;99.90;;;;;;8359712;28;20208;-66
2023/04/08 05:43:00;;;;;;;31.17;20.17;;;5.50;99.90;;;;;;8323328;28;20194;-66
2023/04/08 05:47:01;;;;;;;29.93;21.23;;;5.40;99.90;;;;;;8317489;28;20232;-67
2023/04/08 05:51:02;;;;;;;22.53;15.53;;;5.30;99.90;;;;;;8322290;28;20251;-67
2023/04/08 05:55:04;;;;;;;19.33;13.87;;;5.20;99.90;;;;;;8322812;28;20185;-67
2023/04/08 05:59:08;;;;;;;23.13;15.70;;;5.20;99.90;;;;;;8313032;28;20275;-67
2023/04/08 06:03:09;;;;;;;36.90;21.83;;;5.20;99.90;;;;;;8319834;28;20272;-67
2023/04/08 06:07:10;;;;;;;55.67;26.90;;;5.30;99.90;;;;;;8315288;28;20263;-69
2023/04/08 06:11:15;;;;;;;39.53;21.67;;;5.40;99.90;;;;;;8321246;28;20182;-65
2023/04/08 06:15:16;;;;;;;20.57;13.70;;;5.50;99.90;;;;;;8315143;28;20186;-68
2023/04/08 06:19:20;;;;;;;25.47;14.23;;;5.60;99.90;;;;;;8325842;28;20251;-67
2023/04/08 06:23:24;;;;;;;31.57;18.57;;;5.60;99.90;;;;;;8325354;28;20281;-66
2023/04/08 06:27:25;;;;;;;28.00;16.43;;;5.60;99.90;;;;;;8328030;28;20274;-66
2023/04/08 06:31:26;;;;;;;27.70;17.80;;;5.50;99.90;;;;;;8328052;28;20194;-66
2023/04/08 06:35:27;;;;;;;38.67;26.40;;;5.50;99.90;;;;;;8323263;28;20194;-72
2023/04/08 06:39:46;;;;;;;42.63;24.13;;;5.50;99.90;;;;;;8330604;28;20265;-71
2023/04/08 06:43:47;;;;;;;27.83;17.37;;;5.70;99.90;;;;;;8342236;28;20199;-71
2023/04/08 06:47:48;;;;;;;47.57;30.83;;;5.80;99.90;;;;;;8324291;28;20209;-69
2023/04/08 06:51:49;;;;;;;34.60;26.30;;;5.80;99.90;;;;;;8328505;28;20304;-69
2023/04/08 06:55:50;;;;;;;25.03;15.80;;;5.70;99.90;;;;;;8325906;28;20209;-70
2023/04/08 06:59:55;;;;;;;31.50;19.50;;;5.60;99.90;;;;;;8321157;28;20191;-70
2023/04/08 07:04:01;;;;;;;22.77;14.93;;;5.60;99.90;;;;;;8325443;28;20177;-71
2023/04/08 07:08:02;;;;;;;29.03;17.17;;;5.50;99.90;;;;;;8328413;28;20217;-71
2023/04/08 07:12:08;;;;;;;35.77;21.00;;;5.50;99.90;;;;;;8321897;28;20186;-69
2023/04/08 07:16:09;;;;;;;22.93;16.00;;;5.50;99.90;;;;;;8331615;28;20190;-69
2023/04/08 07:20:11;;;;;;;24.73;17.47;;;5.50;99.90;;;;;;8331544;28;20196;-69
2023/04/08 07:24:14;;;;;;;26.83;17.40;;;5.40;99.90;;;;;;8334241;28;20190;-69
2023/04/08 07:28:15;;;;;;;25.23;16.47;;;5.40;99.90;;;;;;8328481;28;20222;-69
2023/04/08 07:32:16;;;;;;;28.07;17.93;;;5.50;99.90;;;;;;8332374;28;20189;-69
2023/04/08 07:36:17;;;;;;;25.00;17.43;;;5.50;99.90;;;;;;8334683;28;20193;-69
2023/04/08 07:40:18;;;;;;;28.53;19.30;;;5.60;99.90;;;;;;8345130;28;20194;-69
2023/04/08 07:44:22;;;;;;;25.80;18.43;;;5.60;99.90;;;;;;8324108;28;20186;-69
2023/04/08 07:48:24;;;;;;;26.63;18.77;;;5.60;99.90;;;;;;8332450;28;20262;-70
2023/04/08 07:52:30;;;;;;;22.43;16.47;;;5.60;99.90;;;;;;8329295;28;20213;-70
2023/04/08 07:56:31;;;;;;;20.07;14.83;;;5.60;99.90;;;;;;8327429;28;20198;-70
2023/04/08 08:00:32;;;;;;;32.03;19.93;;;5.60;99.90;;;;;;8329646;28;20197;-69
2023/04/08 08:04:36;;;;;;;42.93;21.73;;;5.60;45.90;;;;;;8326224;28;20219;-71
2023/04/08 08:08:37;;;;;;;26.37;17.87;;;5.60;64.40;;;;;;8327575;28;20260;-69
2023/04/08 08:12:38;;;;;;;33.27;21.53;;;5.60;86.40;;;;;;8328801;28;20193;-70
2023/04/08 08:16:39;;;;;;;27.33;19.83;;;5.80;78.50;;;;;;8327661;28;20193;-70
2023/04/08 08:20:40;;;;;;;28.73;19.83;;;5.80;99.90;;;;;;8331546;28;20194;-71
2023/04/08 08:29:00;;;;;;;24.17;16.90;;;5.90;1.00;;;;;;8332611;28;20218;-68
2023/04/08 08:33:01;;;;;;;24.37;17.00;;;5.80;99.90;;;;;;8325190;28;20216;-69
2023/04/08 08:37:02;;;;;;;37.27;20.13;;;5.80;1.00;;;;;;8323793;28;20178;-68
2023/04/08 08:41:06;;;;;;;30.80;19.13;;;6.00;1.00;;;;;;8330662;28;20185;-70
2023/04/08 08:45:08;;;;;;;24.97;15.93;;;6.10;1.00;;;;;;8329448;28;20198;-70
2023/04/08 08:49:10;;;;;;;28.40;16.57;;;6.20;99.90;;;;;;8334291;28;20202;-70
2023/04/08 08:53:19;;;;;;;25.53;17.07;;;6.30;99.90;;;;;;8325554;28;20198;-70
2023/04/08 08:57:20;;;;;;;21.73;15.60;;;6.40;99.90;;;;;;8325935;28;20277;-69
2023/04/08 09:01:40;;;;;;;20.60;15.07;;;6.50;97.20;;;;;;8324340;28;20276;-69
2023/04/08 09:06:02;;;;;;;20.63;15.33;;;6.50;6.20;;;;;;8328617;28;20212;-69
2023/04/08 09:10:04;;;;;;;16.43;13.10;;;6.60;1.00;;;;;;8327987;28;20209;-69
2023/04/08 09:14:06;;;;;;;19.03;12.87;;;6.60;1.00;;;;;;8328545;28;20190;-69
2023/04/08 09:18:22;;;;;;;20.87;14.57;;;6.90;1.00;;;;;;8316177;28;20318;-69
2023/04/08 09:22:25;;;;;;;17.57;12.80;;;7.30;99.90;;;;;;8328309;28;20190;-70
2023/04/08 09:26:28;;;;;;;24.90;16.90;;;7.70;99.90;;;;;;8323894;28;20202;-70
2023/04/08 09:30:31;;;;;;;18.20;14.23;;;8.00;99.90;;;;;;8329392;28;20231;-70
2023/04/08 09:34:33;;;;;;;25.87;17.10;;;8.00;99.90;;;;;;8325643;28;20202;-70
2023/04/08 09:38:34;;;;;;;24.83;15.90;;;7.90;99.90;;;;;;8322449;28;20221;-70
2023/04/08 09:42:40;;;;;;;34.67;20.20;;;7.80;99.90;;;;;;8327608;28;20205;-70
2023/04/08 09:46:47;;;;;;;24.10;16.60;;;7.70;99.90;;;;;;8327623;28;20213;-70
2023/04/08 09:51:01;;;;;;;42.93;21.53;;;7.70;99.90;;;;;;8333340;28;20213;-72
2023/04/08 09:55:05;;;;;;;31.80;18.87;;;7.70;99.90;;;;;;8322552;28;20186;-69
2023/04/08 09:59:17;;;;;;;31.77;19.30;;;7.90;99.90;;;;;;8324530;28;20182;-69
2023/04/08 10:03:25;;;;;;;30.50;16.57;;;8.00;99.90;;;;;;8328731;28;20197;-70
2023/04/08 10:07:26;;;;;;;31.03;17.60;;;8.10;99.90;;;;;;8311563;28;20218;-73
2023/04/08 10:11:29;;;;;;;34.87;18.60;;;8.10;99.90;;;;;;8328913;28;20180;-75
2023/04/08 10:15:32;;;;;;;22.27;13.67;;;8.10;99.90;;;;;;8325520;28;20194;-71
2023/04/08 10:19:42;;;;;;;19.97;13.20;;;8.10;99.90;;;;;;8326211;28;20272;-72
2023/04/08 10:23:58;;;;;;;17.47;12.07;;;8.30;99.90;;;;;;8323772;28;20193;-71
2023/04/08 10:28:22;;;;;;;30.37;16.30;;;8.40;99.90;;;;;;8329250;28;20212;-70
2023/04/08 10:32:32;;;;;;;15.03;11.00;;;8.30;99.90;;;;;;8324219;28;20185;-72
2023/04/08 10:36:32;;;;;;;46.53;24.17;;;8.30;99.90;;;;;;8331136;28;20194;-72
2023/04/08 10:40:37;;;;;;;29.50;16.03;;;8.30;99.90;;;;;;8328533;28;20198;-70
2023/04/08 10:44:47;;;;;;;24.97;15.57;;;8.40;99.90;;;;;;8324806;28;20244;-71
2023/04/08 10:49:00;;;;;;;27.27;15.73;;;8.60;99.90;;;;;;8322989;28;20214;-73
2023/04/08 10:53:05;;;;;;;23.87;13.90;;;9.00;99.90;;;;;;8328291;28;20305;-72
2023/04/08 10:57:06;;;;;;;13.13;9.30;;;9.30;99.90;;;;;;8334211;28;20217;-71
2023/04/08 11:01:07;;;;;;;23.50;12.60;;;9.70;88.40;;;;;;8329982;28;20190;-71
2023/04/08 11:05:10;;;;;;;14.30;9.77;;;9.80;78.50;;;;;;8330751;28;20187;-71
2023/04/08 11:09:20;;;;;;;11.60;9.13;;;9.80;58.00;;;;;;8334816;28;20219;-70
2023/04/08 11:13:22;;;;;;;14.23;10.37;;;9.80;40.50;;;;;;8340335;28;20239;-70
2023/04/08 11:17:24;;;;;;;21.30;12.90;;;9.80;45.90;;;;;;8328160;28;20188;-71
2023/04/08 11:21:28;;;;;;;14.43;11.27;;;9.70;56.50;;;;;;8328964;28;20186;-72
2023/04/08 11:25:31;;;;;;;18.77;13.03;;;9.40;64.30;;;;;;8337708;28;20190;-71
2023/04/08 11:29:33;;;;;;;21.30;13.57;;;9.20;71.10;;;;;;8328987;28;20206;-71
2023/04/08 11:33:42;;;;;;;34.43;20.33;;;9.10;91.50;;;;;;8330317;28;20217;-71
2023/04/08 11:37:46;;;;;;;14.27;11.47;;;9.00;93.00;;;;;;8332783;28;20191;-71
2023/04/08 11:41:49;;;;;;;15.77;11.17;;;9.10;98.80;;;;;;8337768;28;20225;-72
2023/04/08 11:45:52;;;;;;;15.10;11.03;;;9.00;98.20;;;;;;8332081;28;20190;-73
2023/04/08 11:50:07;;;;;;;16.83;11.50;;;8.90;99.90;;;;;;8333071;28;20220;-72
2023/04/08 11:54:33;;;;;;;17.63;13.40;;;8.90;99.90;;;;;;8324793;28;20206;-73
2023/04/08 11:58:34;;;;;;;16.73;13.50;;;8.80;99.90;;;;;;8338166;28;20252;-72
2023/04/08 12:02:35;;;;;;;13.43;10.77;;;8.80;99.90;;;;;;8334341;28;20221;-72
2023/04/08 12:06:48;;;;;;;;;;;;;;;;;;;;;
2023/04/08 12:10:50;;;;;;;22.90;15.33;;;8.90;99.90;;;;;;8333479;28;20205;-72
2023/04/08 12:14:54;;;;;;;15.17;11.37;;;8.90;99.90;;;;;;8328170;28;20185;-71
2023/04/08 12:18:55;;;;;;;24.70;15.73;;;8.70;99.90;;;;;;8328290;28;20193;-72
2023/04/08 12:23:11;;;;;;;20.00;15.37;;;8.60;99.90;;;;;;8335731;28;20212;-71
2023/04/08 12:27:13;;;;;;;22.67;15.60;;;8.80;99.90;;;;;;8326758;28;20214;-70
2023/04/08 12:31:15;;;;;;;30.53;21.47;;;9.00;99.90;;;;;;8309155;28;20190;-71
2023/04/08 12:35:18;;;;;;;34.80;19.90;;;9.10;99.90;;;;;;8323271;28;20178;-71
2023/04/08 12:39:22;;;;;;;17.93;12.73;;;9.00;99.90;;;;;;8310992;28;20189;-71
2023/04/08 12:43:23;;;;;;;12.77;9.83;;;9.10;99.90;;;;;;8329981;28;20218;-70
2023/04/08 12:47:24;;;;;;;11.07;9.53;;;9.60;94.90;;;;;;8330021;28;20237;-70
2023/04/08 12:51:25;;;;;;;10.93;9.17;;;10.20;58.00;;;;;;8326712;28;20234;-70
2023/04/08 12:55:26;;;;;;;16.70;11.07;;;10.70;28.10;;;;;;8340359;28;20260;-71
2023/04/08 12:59:27;;;;;;;12.73;9.50;;;11.10;21.50;;;;;;8323860;28;20280;-72
2023/04/08 13:03:31;;;;;;;15.07;10.37;;;11.20;18.50;;;;;;8327418;28;20237;-70
2023/04/08 13:07:32;;;;;;;8.17;7.37;;;11.10;4.00;;;;;;8325807;28;20218;-71
2023/04/08 13:11:36;;;;;;;22.20;14.90;;;10.70;2.80;;;;;;8317119;28;20228;-72
2023/04/08 13:15:39;;;;;;;14.07;9.87;;;10.40;11.20;;;;;;8320826;28;20189;-71
2023/04/08 13:20:02;;;;;;;21.17;14.10;;;10.20;21.90;;;;;;8339436;28;20190;-71
2023/04/08 13:24:18;;;;;;;18.97;13.60;;;10.40;25.60;;;;;;8310629;28;20201;-72
2023/04/08 13:28:59;;;;;;;17.70;14.17;;;10.50;20.60;;;;;;8320446;28;20278;-70
2023/04/08 13:33:01;;;;;;;41.67;20.87;;;10.40;13.70;;;;;;8324625;28;20227;-71
2023/04/08 13:37:03;;;;;;;16.37;10.87;;;10.10;16.50;;;;;;8325438;28;20256;-71
2023/04/08 13:41:04;;;;;;;25.30;13.03;;;9.80;30.80;;;;;;8329539;28;20180;-71
2023/04/08 13:49:30;;;;;;;20.63;13.37;;;9.60;50.40;;;;;;8325393;28;20220;-70
2023/04/08 13:53:37;;;;;;;15.33;11.93;;;9.70;50.50;;;;;;8320136;28;20253;-72
2023/04/08 13:57:38;;;;;;;23.13;14.17;;;10.00;47.70;;;;;;8320987;28;20419;-72
2023/04/08 14:01:42;;;;;;;13.70;10.10;;;10.20;31.10;;;;;;8323228;28;20195;-71
2023/04/08 14:05:52;;;;;;;35.37;18.03;;;10.30;25.40;;;;;;8320985;28;20228;-72
2023/04/08 14:09:53;;;;;;;10.47;8.80;;;10.40;22.30;;;;;;8322851;28;20216;-71
2023/04/08 14:14:03;;;;;;;19.37;12.50;;;10.10;28.10;;;;;;8338890;28;20189;-70
2023/04/08 14:18:05;;;;;;;12.30;9.23;;;9.90;43.70;;;;;;8325900;28;20225;-70
2023/04/08 14:22:13;;;;;;;11.77;9.73;;;9.90;52.10;;;;;;8324638;28;20197;-70
2023/04/08 14:26:37;;;;;;;10.37;8.37;;;10.10;52.20;;;;;;8319212;28;20256;-71
2023/04/08 14:30:38;;;;;;;13.50;9.73;;;10.50;44.50;;;;;;8325581;28;20189;-70
2023/04/08 14:34:39;;;;;;;12.73;10.03;;;11.00;29.00;;;;;;8327808;28;20253;-71
2023/04/08 14:38:40;;;;;;;17.60;12.30;;;11.20;21.00;;;;;;8327362;28;20214;-70
2023/04/08 14:42:41;;;;;;;11.40;9.37;;;11.30;10.80;;;;;;8327649;28;20181;-70
2023/04/08 14:46:42;;;;;;;13.23;9.93;;;11.20;3.10;;;;;;8322182;28;20213;-70
2023/04/08 14:50:51;;;;;;;15.33;11.37;;;11.30;6.20;;;;;;8325572;28;20260;-70
2023/04/08 14:54:55;;;;;;;16.33;11.80;;;11.30;12.70;;;;;;8321067;28;20210;-72
2023/04/08 14:58:56;;;;;;;20.07;14.33;;;11.20;25.40;;;;;;8342431;28;20193;-73
2023/04/08 15:02:57;;;;;;;21.43;14.67;;;10.70;35.90;;;;;;8331816;28;20211;-73
2023/04/08 15:06:58;;;;;;;24.27;13.93;;;10.40;51.20;;;;;;8324720;28;20225;-72
2023/04/08 15:10:59;;;;;;;43.37;23.80;;;10.10;58.70;;;;;;8330790;28;20223;-73
2023/04/08 15:15:01;;;;;;;27.00;17.07;;;10.00;78.10;;;;;;8329462;28;20184;-70
2023/04/08 15:19:03;;;;;;;21.93;14.73;;;9.90;91.40;;;;;;8333482;28;20180;-73
2023/04/08 15:23:04;;;;;;;25.77;16.97;;;9.80;96.90;;;;;;8326273;28;20283;-71
2023/04/08 15:27:06;;;;;;;26.10;18.23;;;9.70;99.90;;;;;;8323272;28;20210;-72
2023/04/08 15:31:07;;;;;;;19.33;14.13;;;9.50;99.90;;;;;;8333193;28;20192;-73
2023/04/08 15:35:09;;;;;;;14.10;10.97;;;9.30;99.90;;;;;;8332799;28;20262;-72
2023/04/08 15:39:10;;;;;;;15.43;11.40;;;9.00;99.90;;;;;;8335239;28;20197;-70
2023/04/08 15:43:11;;;;;;;17.67;12.27;;;8.80;99.90;;;;;;8330496;28;20229;-72
2023/04/08 15:47:16;;;;;;;25.40;16.13;;;8.80;99.90;;;;;;8328963;28;20264;-70
2023/04/08 15:51:18;;;;;;;15.43;11.33;;;9.10;99.90;;;;;;8329823;28;20210;-70
2023/04/08 15:55:48;;;;;;;23.87;17.23;;;9.50;99.90;;;;;;8332750;28;20185;-72
2023/04/08 15:59:49;;;;;;;19.87;12.33;;;9.90;99.90;;;;;;8328659;28;20193;-72
2023/04/08 16:03:50;;;;;;;32.23;20.07;;;10.40;99.90;;;;;;8330733;28;20200;-70
2023/04/08 16:07:52;;;;;;;23.80;14.50;;;10.50;62.10;;;;;;8323167;28;20220;-70
2023/04/08 16:11:54;;;;;;;17.90;12.77;;;10.70;56.90;;;;;;8328976;28;20192;-71
2023/04/08 16:15:59;;;;;;;18.47;12.77;;;10.70;52.00;;;;;;8324311;28;20316;-69
2023/04/08 16:20:00;;;;;;;23.43;14.10;;;10.50;51.20;;;;;;8326549;28;20203;-70
2023/04/08 16:24:01;;;;;;;34.67;22.47;;;10.20;64.20;;;;;;8328168;28;20219;-70
2023/04/08 16:28:02;;;;;;;42.50;26.27;;;9.90;81.70;;;;;;8331883;28;20218;-68
2023/04/08 16:32:04;;;;;;;52.17;32.47;;;9.60;95.10;;;;;;8333476;28;20176;-70
2023/04/08 16:36:08;;;;;;;39.07;24.87;;;9.50;99.90;;;;;;8323199;28;20188;-71
2023/04/08 16:40:10;;;;;;;26.97;16.90;;;9.30;99.90;;;;;;8335294;28;20195;-70
2023/04/08 16:44:11;;;;;;;31.43;21.60;;;9.10;99.90;;;;;;8326594;28;20214;-71
2023/04/08 16:48:12;;;;;;;24.30;17.60;;;8.90;99.90;;;;;;8330156;28;20232;-71
2023/04/08 16:52:13;;;;;;;23.20;17.47;;;8.70;99.90;;;;;;8325204;28;20306;-70
2023/04/08 16:56:15;;;;;;;28.80;21.03;;;8.50;99.90;;;;;;8331958;28;20265;-70
2023/04/08 17:00:18;;;;;;;19.33;14.13;;;8.40;99.90;;;;;;8331177;28;20195;-70
2023/04/08 17:04:25;;;;;;;17.53;13.30;;;8.20;99.90;;;;;;8326405;28;20189;-71
2023/04/08 17:08:26;;;;;;;19.80;13.67;;;7.90;99.90;;;;;;8332069;28;20213;-70
2023/04/08 17:12:27;;;;;;;20.30;15.27;;;7.70;99.90;;;;;;8328919;28;20206;-71
2023/04/08 17:16:29;;;;;;;20.73;14.33;;;7.50;99.90;;;;;;8326922;28;20272;-71
2023/04/08 17:20:39;;;;;;;17.83;13.30;;;7.30;99.90;;;;;;8332926;28;20178;-70
2023/04/08 17:24:43;;;;;;;11.63;9.17;;;7.10;99.90;;;;;;8330401;28;20190;-71
2023/04/08 17:28:47;;;;;;;10.73;8.87;;;6.80;99.90;;;;;;8322519;28;20265;-70
2023/04/08 17:32:50;;;;;;;12.07;8.90;;;6.50;1.00;;;;;;8323843;28;20178;-69
2023/04/08 17:37:30;;;;;;;9.27;7.80;;;6.20;1.00;;;;;;8323128;28;20202;-66
2023/04/08 17:41:31;;;;;;;10.00;7.60;;;5.90;1.00;;;;;;8296923;28;20195;-66
2023/04/08 17:45:32;;;;;;;10.43;8.00;;;5.70;79.60;;;;;;8297690;28;20194;-65
2023/04/08 17:49:39;;;;;;;9.00;7.63;;;5.40;99.90;;;;;;8298330;28;20314;-65
2023/04/08 17:53:49;;;;;;;8.33;6.87;;;5.20;99.90;;;;;;8304653;28;20245;-66
2023/04/08 17:57:53;;;;;;;8.70;6.77;;;5.00;99.90;;;;;;8297255;28;20193;-66
2023/04/08 18:01:54;;;;;;;11.17;7.73;;;4.90;1.00;;;;;;8299610;28;20186;-67
2023/04/08 18:05:55;;;;;;;9.13;7.67;;;4.70;1.00;;;;;;8293420;28;20197;-66
2023/04/08 18:09:58;;;;;;;9.17;7.23;;;4.60;1.00;;;;;;8284645;28;20372;-67
2023/04/08 18:14:02;;;;;;;13.23;9.43;;;4.40;81.20;;;;;;8324442;28;20189;-66
2023/04/08 18:18:03;;;;;;;14.10;10.07;;;4.20;99.90;;;;;;8324639;28;20249;-65
2023/04/08 18:22:10;;;;;;;13.10;9.37;;;4.10;99.90;;;;;;8315791;28;20267;-65
2023/04/08 18:26:11;;;;;;;10.73;8.13;;;3.90;1.00;;;;;;8325902;28;20194;-66
2023/04/08 18:30:12;;;;;;;10.77;8.33;;;3.70;1.00;;;;;;8324758;28;20308;-65
2023/04/08 18:34:13;;;;;;;12.77;8.40;;;3.50;56.50;;;;;;8324002;28;20188;-65
2023/04/08 18:38:15;;;;;;;17.53;11.00;;;3.40;99.90;;;;;;8325321;28;20191;-65
2023/04/08 18:42:20;;;;;;;27.63;13.37;;;3.30;1.00;;;;;;8325057;28;20192;-66
2023/04/08 18:46:21;;;;;;;22.30;12.57;;;3.20;1.00;;;;;;8341352;28;20197;-66
2023/04/08 18:50:23;;;;;;;16.73;11.07;;;3.00;4.20;;;;;;8327672;28;20205;-67
2023/04/08 18:54:25;;;;;;;18.37;12.30;;;2.90;99.90;;;;;;8321396;28;20192;-67
2023/04/08 18:58:27;;;;;;;21.87;13.07;;;2.80;99.90;;;;;;8329986;28;20268;-67
2023/04/08 19:02:28;;;;;;;22.63;13.13;;;2.70;99.90;;;;;;8326833;28;20183;-67
2023/04/08 19:06:32;;;;;;;18.30;11.93;;;2.60;1.00;;;;;;8324853;28;20186;-66
2023/04/08 19:10:37;;;;;;;12.90;8.93;;;2.50;1.00;;;;;;8325709;28;20197;-67
2023/04/08 19:14:38;;;;;;;15.10;9.90;;;2.30;1.00;;;;;;8340688;28;20254;-72
2023/04/08 19:18:39;;;;;;;19.90;12.80;;;2.20;99.90;;;;;;8340114;28;20202;-72
2023/04/08 19:22:40;;;;;;;18.63;12.13;;;2.10;99.90;;;;;;8342979;28;20224;-72
2023/04/08 19:26:45;;;;;;;14.73;10.30;;;2.10;1.00;;;;;;8341326;28;20180;-72
2023/04/08 19:30:46;;;;;;;12.50;9.30;;;2.00;1.00;;;;;;8344224;28;20186;-72
2023/04/08 19:34:50;;;;;;;13.87;9.30;;;1.90;99.90;;;;;;8338066;28;20246;-71
2023/04/08 19:38:51;;;;;;;12.93;9.50;;;1.80;99.90;;;;;;8344413;28;20185;-72
2023/04/08 19:42:52;;;;;;;13.37;9.20;;;1.80;99.90;;;;;;8351446;28;20245;-73
2023/04/08 19:46:56;;;;;;;12.60;8.97;;;1.70;1.00;;;;;;8337746;28;20248;-72
2023/04/08 19:50:57;;;;;;;14.10;8.87;;;1.60;99.90;;;;;;8336377;28;20198;-72
2023/04/08 19:54:58;;;;;;;17.17;11.40;;;1.60;46.10;;;;;;8340363;28;20178;-73
2023/04/08 19:59:00;;;;;;;15.23;9.50;;;1.50;99.90;;;;;;8330817;28;20228;-72
2023/04/08 20:03:01;;;;;;;16.13;11.17;;;1.40;99.90;;;;;;8341474;28;20174;-73
2023/04/08 20:07:03;;;;;;;20.53;12.50;;;1.50;1.00;;;;;;8337653;28;20202;-72
2023/04/08 20:11:04;;;;;;;17.70;10.67;;;1.60;50.10;;;;;;8339557;28;20186;-72
2023/04/08 20:15:07;;;;;;;15.03;10.23;;;1.60;99.90;;;;;;8338891;28;20186;-72
2023/04/08 20:19:08;;;;;;;15.60;11.87;;;1.50;99.90;;;;;;8336483;28;20193;-72
2023/04/08 20:23:09;;;;;;;21.03;12.57;;;1.60;99.90;;;;;;8329915;28;20282;-71
2023/04/08 20:27:10;;;;;;;17.60;12.47;;;1.60;99.90;;;;;;8340249;28;20206;-72
2023/04/08 20:31:13;;;;;;;14.20;10.33;;;1.70;99.90;;;;;;8339013;28;20188;-73
2023/04/08 20:35:14;;;;;;;12.90;9.63;;;1.70;99.90;;;;;;8337690;28;20189;-71
2023/04/08 20:39:15;;;;;;;15.07;11.03;;;1.80;99.90;;;;;;8339953;28;20185;-73
2023/04/08 20:43:16;;;;;;;17.10;12.20;;;1.90;99.90;;;;;;8341014;28;20193;-73
2023/04/08 20:47:18;;;;;;;21.37;14.50;;;1.90;99.90;;;;;;8333566;28;20202;-71
2023/04/08 20:51:20;;;;;;;20.27;12.73;;;2.00;99.90;;;;;;8335557;28;20206;-71
2023/04/08 20:55:21;;;;;;;20.77;13.70;;;2.10;99.90;;;;;;8334905;28;20227;-72
2023/04/08 20:59:25;;;;;;;18.40;13.83;;;2.10;99.90;;;;;;8338826;28;20186;-71
2023/04/08 21:03:26;;;;;;;28.37;19.27;;;2.10;99.90;;;;;;8337019;28;20193;-71
2023/04/08 21:07:28;;;;;;;28.57;18.13;;;2.30;99.90;;;;;;8340153;28;20228;-73